Time;durP1;ratioP1;P1;durP2;ratioP2;P2;SDS_P1;SDS_P2;PMS_P1;PMS_P2;Temp;Humidity;BMP_temperature;BMP_pressure;BME280_temperature;BME280_humidity;BME280_pressure;Samples;Min_cycle;Max_cycle;Signal;HPM_P1;HPM_P2
2023/11/18 04:06:11;;;;;;;0.30;0.30;;;6.50;99.90;;;;;;5691011;23;20283;-66
2023/11/18 04:08:37;;;;;;;0.30;0.30;;;6.50;99.90;;;;;;5015254;28;20179;-64
2023/11/18 04:11:04;;;;;;;0.32;0.32;;;6.60;99.90;;;;;;5015479;28;20173;-65
2023/11/18 04:13:30;;;;;;;0.40;0.40;;;6.60;99.90;;;;;;5015167;28;20702;-65
2023/11/18 04:15:56;;;;;;;0.40;0.40;;;6.60;99.90;;;;;;5003962;28;20274;-64
2023/11/18 04:18:22;;;;;;;0.30;0.30;;;6.50;99.90;;;;;;4994101;28;20193;-63
2023/11/18 04:20:48;;;;;;;0.30;0.30;;;6.50;99.90;;;;;;4995504;28;20183;-64
2023/11/18 04:23:14;;;;;;;0.30;0.30;;;6.50;99.90;;;;;;4995394;28;20167;-65
2023/11/18 04:25:39;;;;;;;0.40;0.40;;;6.50;99.90;;;;;;4994579;28;20199;-66
2023/11/18 04:28:05;;;;;;;0.50;0.50;;;6.50;99.90;;;;;;4995131;28;20464;-64
2023/11/18 04:30:30;;;;;;;0.37;0.37;;;6.50;99.90;;;;;;4995315;28;20241;-64
2023/11/18 04:32:56;;;;;;;0.30;0.30;;;6.50;99.90;;;;;;4995238;28;20211;-63
2023/11/18 04:35:22;;;;;;;0.30;0.20;;;6.50;99.90;;;;;;4993773;28;20229;-65
2023/11/18 04:37:48;;;;;;;0.30;0.30;;;6.50;99.90;;;;;;4977893;28;20182;-65
2023/11/18 04:40:14;;;;;;;0.38;0.38;;;6.40;99.90;;;;;;4994707;28;20953;-65
2023/11/18 04:42:39;;;;;;;0.30;0.30;;;6.40;99.90;;;;;;4994925;28;20186;-66
2023/11/18 04:45:06;;;;;;;0.30;0.30;;;6.30;99.90;;;;;;4994628;28;20194;-65
2023/11/18 04:47:31;;;;;;;0.30;0.30;;;6.30;99.90;;;;;;4995129;28;20179;-64
2023/11/18 04:49:57;;;;;;;0.30;0.30;;;6.20;99.90;;;;;;4977659;28;20546;-65
2023/11/18 04:52:22;;;;;;;0.30;0.30;;;6.20;99.90;;;;;;4994741;28;20250;-65
2023/11/18 04:54:48;;;;;;;0.50;0.50;;;6.10;99.90;;;;;;4994073;28;20180;-64
2023/11/18 04:57:14;;;;;;;0.57;0.57;;;6.00;99.90;;;;;;4994630;28;20183;-65
2023/11/18 04:59:39;;;;;;;0.30;0.30;;;6.00;99.90;;;;;;4994518;28;20635;-65
2023/11/18 05:02:06;;;;;;;0.30;0.30;;;5.90;99.90;;;;;;4994786;28;20464;-65
2023/11/18 05:04:31;;;;;;;0.30;0.30;;;5.90;99.90;;;;;;4994143;28;20233;-66
2023/11/18 05:06:57;;;;;;;0.30;0.30;;;5.90;99.90;;;;;;4994367;28;20620;-66
2023/11/18 05:09:23;;;;;;;0.40;0.40;;;5.80;99.90;;;;;;4993847;28;20222;-66
2023/11/18 05:11:49;;;;;;;0.30;0.30;;;5.80;99.90;;;;;;4994387;28;20183;-65
2023/11/18 05:14:16;;;;;;;0.37;0.37;;;5.70;99.90;;;;;;4994091;28;20253;-63
2023/11/18 05:16:42;;;;;;;0.40;0.40;;;5.70;99.90;;;;;;4991809;28;20199;-64
2023/11/18 05:19:07;;;;;;;0.30;0.30;;;5.70;99.90;;;;;;5014021;28;20253;-64
2023/11/18 05:21:33;;;;;;;0.40;0.40;;;5.60;99.90;;;;;;4998786;28;20174;-65
2023/11/18 05:23:58;;;;;;;0.33;0.33;;;5.60;99.90;;;;;;4993528;28;20209;-64
2023/11/18 05:26:24;;;;;;;0.30;0.30;;;5.60;99.90;;;;;;4994116;28;20661;-66
2023/11/18 05:28:50;;;;;;;0.30;0.30;;;5.60;99.90;;;;;;4994351;28;20642;-64
2023/11/18 05:31:16;;;;;;;0.40;0.40;;;5.50;99.90;;;;;;4993716;28;20235;-63
2023/11/18 05:33:42;;;;;;;0.30;0.30;;;5.50;99.90;;;;;;4993937;28;20236;-65
2023/11/18 05:36:08;;;;;;;0.35;0.35;;;5.50;99.90;;;;;;4993718;28;20248;-65
2023/11/18 05:38:37;;;;;;;0.30;0.30;;;5.40;99.90;;;;;;4992928;28;20172;-64
2023/11/18 05:41:03;;;;;;;0.40;0.40;;;5.40;99.90;;;;;;4993854;28;20167;-63
2023/11/18 05:43:41;;;;;;;0.30;0.30;;;5.30;99.90;;;;;;4994242;28;20179;-64
2023/11/18 05:46:22;;;;;;;0.30;0.30;;;5.40;99.90;;;;;;4993472;28;20536;-64
2023/11/18 05:48:49;;;;;;;0.40;0.40;;;5.30;99.90;;;;;;4993571;28;20186;-62
2023/11/18 05:51:20;;;;;;;0.30;0.30;;;5.30;99.90;;;;;;4993915;28;20194;-64
2023/11/18 05:53:46;;;;;;;0.30;0.30;;;5.30;99.90;;;;;;4993728;28;20301;-65
2023/11/18 05:56:13;;;;;;;0.40;0.40;;;5.30;99.90;;;;;;4993643;28;20195;-64
2023/11/18 05:58:43;;;;;;;0.40;0.40;;;5.30;99.90;;;;;;4993860;28;20176;-63
2023/11/18 06:01:09;;;;;;;0.40;0.40;;;5.30;99.90;;;;;;4992787;28;20167;-66
2023/11/18 06:03:38;;;;;;;0.30;0.30;;;5.30;99.90;;;;;;4993342;28;20183;-65
2023/11/18 06:06:07;;;;;;;0.40;0.40;;;5.30;99.90;;;;;;4993287;28;20218;-65
2023/11/18 06:08:34;;;;;;;0.32;0.32;;;5.20;99.90;;;;;;4993817;28;20646;-64
2023/11/18 06:11:05;;;;;;;0.40;0.40;;;5.10;99.90;;;;;;4993834;28;20269;-64
2023/11/18 06:13:31;;;;;;;0.30;0.30;;;5.10;99.90;;;;;;4993660;28;20207;-64
2023/11/18 06:15:58;;;;;;;0.30;0.30;;;5.10;99.90;;;;;;4992848;28;20540;-63
2023/11/18 06:18:24;;;;;;;0.35;0.35;;;5.00;99.90;;;;;;4993273;28;20502;-65
2023/11/18 06:20:49;;;;;;;0.50;0.50;;;5.00;99.90;;;;;;4993513;28;20164;-63
2023/11/18 06:23:18;;;;;;;0.40;0.40;;;5.00;99.90;;;;;;4993508;28;20222;-65
2023/11/18 06:25:45;;;;;;;0.30;0.30;;;5.00;99.90;;;;;;4993149;28;20222;-65
2023/11/18 06:28:11;;;;;;;0.30;0.30;;;5.00;99.90;;;;;;4976404;28;20172;-64
2023/11/18 06:30:38;;;;;;;0.40;0.40;;;4.90;99.90;;;;;;4992940;28;20184;-64
2023/11/18 06:33:06;;;;;;;0.40;0.40;;;4.90;99.90;;;;;;4975776;28;20621;-63
2023/11/18 06:35:34;;;;;;;0.30;0.30;;;4.90;99.90;;;;;;4992995;28;20195;-62
2023/11/18 06:37:59;;;;;;;0.30;0.30;;;4.80;99.90;;;;;;4977809;28;20172;-65
2023/11/18 06:40:27;;;;;;;0.30;0.30;;;4.80;99.90;;;;;;4993273;28;20513;-65
2023/11/18 06:42:54;;;;;;;0.30;0.30;;;4.80;99.90;;;;;;4993410;28;20208;-64
2023/11/18 06:45:21;;;;;;;0.40;0.40;;;4.90;99.90;;;;;;4991949;28;20195;-65
2023/11/18 06:47:49;;;;;;;0.30;0.30;;;4.80;99.90;;;;;;4993384;28;20167;-65
2023/11/18 06:50:15;;;;;;;0.30;0.30;;;4.80;99.90;;;;;;4993339;28;20230;-65
2023/11/18 06:52:44;;;;;;;0.40;0.40;;;4.80;99.90;;;;;;4993206;28;20200;-66
2023/11/18 06:55:11;;;;;;;0.30;0.30;;;4.80;99.90;;;;;;4992583;28;20432;-67
2023/11/18 06:57:37;;;;;;;0.30;0.30;;;4.80;99.90;;;;;;4993044;28;20203;-65
2023/11/18 07:00:08;;;;;;;0.40;0.40;;;4.90;99.90;;;;;;4993013;28;20179;-66
2023/11/18 07:02:34;;;;;;;0.30;0.30;;;4.90;99.90;;;;;;4992453;28;20187;-64
2023/11/18 07:05:00;;;;;;;0.33;0.33;;;4.90;99.90;;;;;;4992246;28;20207;-65
2023/11/18 07:07:26;;;;;;;0.30;0.30;;;5.00;99.90;;;;;;4992313;28;20563;-65
2023/11/18 07:09:52;;;;;;;0.33;0.33;;;5.10;99.90;;;;;;4993116;28;20199;-64
2023/11/18 07:12:19;;;;;;;0.30;0.30;;;5.20;99.90;;;;;;4992900;28;20490;-65
2023/11/18 07:14:45;;;;;;;0.30;0.30;;;5.20;99.90;;;;;;4993084;28;20188;-65
2023/11/18 07:17:10;;;;;;;0.43;0.43;;;5.30;99.90;;;;;;4996000;28;20264;-67
2023/11/18 07:19:36;;;;;;;0.40;0.40;;;5.50;99.90;;;;;;4996342;28;20167;-65
2023/11/18 07:22:02;;;;;;;0.50;0.50;;;5.70;99.90;;;;;;4996099;28;20200;-66
2023/11/18 07:24:29;;;;;;;0.57;0.57;;;6.30;99.90;;;;;;4995737;28;20270;-66
2023/11/18 07:26:55;;;;;;;0.60;0.60;;;6.70;99.90;;;;;;4995455;28;20233;-67
2023/11/18 07:29:21;;;;;;;0.30;0.30;;;7.20;99.90;;;;;;4996422;28;20555;-66
2023/11/18 07:31:49;;;;;;;0.30;0.30;;;7.60;99.90;;;;;;4995427;28;20179;-66
2023/11/18 07:34:15;;;;;;;0.30;0.30;;;7.80;99.90;;;;;;4996201;28;20237;-68
2023/11/18 07:36:40;;;;;;;1.67;1.17;;;7.90;99.90;;;;;;4994733;28;20469;-65
2023/11/18 07:39:15;;;;;;;0.30;0.30;;;8.20;99.90;;;;;;4995973;28;20422;-67
2023/11/18 07:41:44;;;;;;;0.30;0.30;;;8.40;99.90;;;;;;4976672;28;20423;-65
2023/11/18 07:44:12;;;;;;;0.30;0.30;;;8.50;99.90;;;;;;4991619;28;20207;-65
2023/11/18 07:46:38;;;;;;;0.50;0.50;;;8.70;99.90;;;;;;4978189;28;20214;-64
2023/11/18 07:49:04;;;;;;;0.43;0.43;;;8.80;99.90;;;;;;4995670;28;20630;-64
2023/11/18 07:51:29;;;;;;;0.37;0.37;;;9.00;99.90;;;;;;4995703;28;20654;-64
2023/11/18 07:53:55;;;;;;;0.30;0.30;;;8.90;99.90;;;;;;4995706;28;20461;-65
2023/11/18 07:56:24;;;;;;;0.37;0.37;;;8.90;99.90;;;;;;4995598;28;20667;-64
2023/11/18 07:58:51;;;;;;;0.30;0.30;;;9.00;99.90;;;;;;4991680;28;20432;-64
2023/11/18 08:01:17;;;;;;;0.40;0.40;;;9.10;99.90;;;;;;4996208;28;20474;-62
2023/11/18 08:03:43;;;;;;;0.30;0.30;;;9.20;99.90;;;;;;4995163;28;20186;-64
2023/11/18 08:06:11;;;;;;;0.30;0.30;;;9.40;99.90;;;;;;4995292;28;20561;-63
2023/11/18 08:08:37;;;;;;;0.40;0.40;;;9.40;99.90;;;;;;4995434;28;20534;-62
2023/11/18 08:11:04;;;;;;;0.40;0.40;;;9.40;99.90;;;;;;4995334;28;20434;-62
2023/11/18 08:13:30;;;;;;;0.37;0.37;;;9.50;99.90;;;;;;4994992;28;20471;-63
2023/11/18 08:15:57;;;;;;;0.30;0.30;;;9.60;99.90;;;;;;4994452;28;20454;-65
2023/11/18 08:18:24;;;;;;;0.30;0.20;;;9.80;99.90;;;;;;4995559;28;20435;-63
2023/11/18 08:20:50;;;;;;;0.30;0.30;;;9.90;99.90;;;;;;4995546;28;20408;-64
2023/11/18 08:23:16;;;;;;;0.43;0.40;;;10.00;99.90;;;;;;4995404;28;20200;-63
2023/11/18 08:25:42;;;;;;;0.30;0.30;;;9.90;99.90;;;;;;4994131;28;20205;-62
2023/11/18 08:28:08;;;;;;;0.30;0.30;;;9.80;99.90;;;;;;4995335;28;20906;-65
2023/11/18 08:30:39;;;;;;;0.63;0.63;;;9.70;99.90;;;;;;4995140;28;20276;-62
2023/11/18 08:33:08;;;;;;;0.60;0.60;;;9.80;99.90;;;;;;4994958;28;20447;-63
2023/11/18 08:35:37;;;;;;;0.50;0.50;;;9.90;99.90;;;;;;4994198;28;20810;-63
2023/11/18 08:38:04;;;;;;;0.30;0.20;;;9.90;99.90;;;;;;4977512;28;20507;-63
2023/11/18 08:40:30;;;;;;;0.30;0.20;;;9.80;99.90;;;;;;4994185;28;20448;-64
2023/11/18 08:42:56;;;;;;;0.37;0.37;;;9.50;99.90;;;;;;4977220;28;20445;-63
2023/11/18 08:45:29;;;;;;;0.30;0.30;;;9.40;99.90;;;;;;4994074;28;20610;-64
2023/11/18 08:47:59;;;;;;;0.50;0.47;;;9.40;99.90;;;;;;4994073;28;20427;-63
2023/11/18 08:50:25;;;;;;;0.30;0.30;;;9.30;99.90;;;;;;4994291;28;20421;-62
2023/11/18 08:52:57;;;;;;;0.30;0.30;;;9.30;99.90;;;;;;4993971;28;20243;-63
2023/11/18 08:55:39;;;;;;;0.40;0.40;;;9.30;99.90;;;;;;4991911;28;20424;-62
2023/11/18 08:58:15;;;;;;;0.30;0.30;;;9.40;99.90;;;;;;4992717;28;20537;-64
2023/11/18 09:00:46;;;;;;;0.30;0.30;;;9.50;99.90;;;;;;4991331;28;20495;-63
2023/11/18 09:03:17;;;;;;;0.30;0.28;;;9.60;99.90;;;;;;4994228;28;20202;-66
2023/11/18 09:05:59;;;;;;;0.30;0.27;;;9.60;99.90;;;;;;4991800;28;20202;-68
2023/11/18 09:08:35;;;;;;;0.50;0.50;;;9.70;99.90;;;;;;4992248;28;20829;-63
2023/11/18 09:11:04;;;;;;;0.40;0.40;;;9.60;99.90;;;;;;4993885;28;20956;-63
2023/11/18 09:13:31;;;;;;;0.30;0.30;;;9.70;99.90;;;;;;5011759;28;20535;-62
2023/11/18 09:16:00;;;;;;;0.30;0.30;;;10.00;99.90;;;;;;5003497;28;20814;-62
2023/11/18 09:18:27;;;;;;;0.30;0.30;;;10.30;99.90;;;;;;4993580;28;21006;-63
2023/11/18 09:20:54;;;;;;;0.30;0.30;;;10.60;99.90;;;;;;4993903;28;20560;-62
2023/11/18 09:23:23;;;;;;;0.40;0.40;;;10.90;99.90;;;;;;4976519;28;20430;-60
2023/11/18 09:25:49;;;;;;;0.30;0.30;;;11.10;99.90;;;;;;4990586;28;20442;-63
2023/11/18 09:28:15;;;;;;;0.40;0.40;;;11.40;99.90;;;;;;4993935;28;20422;-61
2023/11/18 09:30:57;;;;;;;0.30;0.30;;;11.70;99.90;;;;;;4993949;28;20828;-62
2023/11/18 09:33:33;;;;;;;0.30;0.30;;;12.10;99.90;;;;;;4993711;28;20466;-63
2023/11/18 09:36:00;;;;;;;0.30;0.30;;;12.70;99.90;;;;;;4993319;28;20537;-63
2023/11/18 09:38:35;;;;;;;0.30;0.23;;;13.30;99.90;;;;;;4992913;28;20384;-65
2023/11/18 09:41:02;;;;;;;0.30;0.20;;;13.80;99.90;;;;;;4990358;28;20772;-63
2023/11/18 09:43:47;;;;;;;0.30;0.30;;;14.20;99.90;;;;;;4994191;28;20794;-62
2023/11/18 09:46:21;;;;;;;0.30;0.27;;;14.40;99.90;;;;;;4993027;28;20428;-62
2023/11/18 09:49:14;;;;;;;0.30;0.30;;;14.30;99.90;;;;;;4993535;28;20487;-63
2023/11/18 09:51:42;;;;;;;0.30;0.30;;;14.10;99.90;;;;;;4975832;28;20756;-63
2023/11/18 09:54:33;;;;;;;0.30;0.20;;;13.80;99.90;;;;;;4993148;28;20469;-63
2023/11/18 09:57:13;;;;;;;0.30;0.30;;;13.60;99.90;;;;;;4992660;28;20442;-64
2023/11/18 09:59:47;;;;;;;0.30;0.30;;;13.50;99.90;;;;;;4986339;28;20445;-62
2023/11/18 10:02:13;;;;;;;0.30;0.30;;;13.40;99.90;;;;;;4975246;28;20433;-63
2023/11/18 10:04:39;;;;;;;0.30;0.30;;;13.20;99.90;;;;;;4975494;28;20480;-63
2023/11/18 10:07:11;;;;;;;0.40;0.40;;;13.00;99.90;;;;;;4991036;28;20413;-64
2023/11/18 10:09:38;;;;;;;0.30;0.20;;;12.80;99.90;;;;;;4992526;28;20419;-63
2023/11/18 10:12:07;;;;;;;0.30;0.30;;;12.80;99.90;;;;;;4992694;28;20407;-63
2023/11/18 10:14:39;;;;;;;1.80;0.40;;;12.50;99.90;;;;;;4992338;28;20425;-63
2023/11/18 10:17:09;;;;;;;0.30;0.30;;;12.20;99.90;;;;;;4991519;28;20518;-65
2023/11/18 10:20:12;;;;;;;0.30;0.30;;;12.00;99.90;;;;;;4991783;28;20438;-63
2023/11/18 10:22:38;;;;;;;0.30;0.30;;;11.90;99.90;;;;;;4913922;29;20433;-63
2023/11/18 10:25:06;;;;;;;0.30;0.30;;;11.70;99.90;;;;;;4977892;28;20769;-63
2023/11/18 10:27:34;;;;;;;0.50;0.40;;;11.60;99.90;;;;;;4975453;28;20179;-63
2023/11/18 10:30:05;;;;;;;0.30;0.30;;;11.60;99.90;;;;;;4992774;28;20430;-64
2023/11/18 10:32:35;;;;;;;0.30;0.30;;;11.60;99.90;;;;;;4993230;28;20457;-62
2023/11/18 10:35:01;;;;;;;0.53;0.50;;;11.50;99.90;;;;;;4992943;28;20430;-63
2023/11/18 10:37:30;;;;;;;0.30;0.30;;;11.40;99.90;;;;;;4993339;28;20407;-64
2023/11/18 10:39:57;;;;;;;0.30;0.20;;;11.30;99.90;;;;;;4975987;28;20425;-65
2023/11/18 10:42:30;;;;;;;0.40;0.40;;;11.20;99.90;;;;;;4975848;28;20422;-63
2023/11/18 10:45:03;;;;;;;0.30;0.30;;;11.10;99.90;;;;;;4975182;28;20972;-64
2023/11/18 10:47:33;;;;;;;0.30;0.30;;;11.00;99.90;;;;;;4975769;28;20388;-63
2023/11/18 10:49:59;;;;;;;0.30;0.30;;;11.00;99.90;;;;;;4996432;28;20401;-64
2023/11/18 10:52:26;;;;;;;0.30;0.30;;;11.00;99.90;;;;;;4980075;28;20464;-62
2023/11/18 10:54:54;;;;;;;0.30;0.30;;;11.00;99.90;;;;;;4996591;28;20413;-63
2023/11/18 10:57:20;;;;;;;0.30;0.30;;;11.00;99.90;;;;;;4997103;28;21001;-64
2023/11/18 10:59:59;;;;;;;0.30;0.20;;;10.90;99.90;;;;;;4996629;28;20427;-64
2023/11/18 11:02:25;;;;;;;0.40;0.40;;;10.80;99.90;;;;;;4996982;28;20416;-63
2023/11/18 11:04:50;;;;;;;0.30;0.20;;;10.80;99.90;;;;;;4996448;28;20512;-63
2023/11/18 11:07:19;;;;;;;0.30;0.30;;;10.90;99.90;;;;;;4996688;28;20213;-63
2023/11/18 11:09:45;;;;;;;0.30;0.20;;;10.90;99.90;;;;;;4996803;28;20190;-63
2023/11/18 11:12:16;;;;;;;0.50;0.50;;;10.90;99.90;;;;;;4996841;28;20488;-63
2023/11/18 11:15:13;;;;;;;0.43;0.43;;;10.80;99.90;;;;;;4996085;28;20409;-63
2023/11/18 11:17:45;;;;;;;0.30;0.30;;;10.80;99.90;;;;;;4989123;28;20418;-63
2023/11/18 11:20:25;;;;;;;0.30;0.20;;;10.80;99.90;;;;;;4996736;28;20777;-63
2023/11/18 11:23:26;;;;;;;0.33;0.33;;;10.80;99.90;;;;;;4996297;28;20429;-64
2023/11/18 11:26:30;;;;;;;0.33;0.33;;;10.80;99.90;;;;;;4996143;28;20439;-64
2023/11/18 11:29:29;;;;;;;0.30;0.30;;;10.90;99.90;;;;;;4996509;28;20387;-64
2023/11/18 11:32:38;;;;;;;1.13;1.03;;;10.90;99.90;;;;;;4996724;28;20379;-64
2023/11/18 11:35:09;;;;;;;0.30;0.30;;;10.90;99.90;;;;;;4982645;28;20453;-63
2023/11/18 11:37:37;;;;;;;0.30;0.30;;;10.90;99.90;;;;;;4996507;28;20400;-64
2023/11/18 11:40:07;;;;;;;0.30;0.30;;;10.90;99.90;;;;;;4996254;28;20404;-61
2023/11/18 11:42:34;;;;;;;0.30;0.30;;;10.90;99.90;;;;;;4996297;28;20397;-63
2023/11/18 11:45:01;;;;;;;0.30;0.20;;;10.90;99.90;;;;;;4995609;28;20410;-63
2023/11/18 11:47:29;;;;;;;0.37;0.37;;;10.80;99.90;;;;;;4996090;28;20420;-64
2023/11/18 11:50:13;;;;;;;0.30;0.30;;;10.80;99.90;;;;;;4995798;28;20380;-64
2023/11/18 11:52:53;;;;;;;0.53;0.53;;;10.80;99.90;;;;;;4995568;28;20456;-64
2023/11/18 11:55:33;;;;;;;0.30;0.30;;;10.80;99.90;;;;;;4995528;28;20426;-63
2023/11/18 11:58:00;;;;;;;0.30;0.30;;;10.80;99.90;;;;;;4995939;28;20379;-63
2023/11/18 12:00:34;;;;;;;0.30;0.30;;;10.80;99.90;;;;;;4995219;28;20465;-62
2023/11/18 12:03:03;;;;;;;0.30;0.30;;;10.80;99.90;;;;;;4995653;28;20401;-63
2023/11/18 12:05:33;;;;;;;0.30;0.30;;;10.70;99.90;;;;;;4977617;28;20210;-63
2023/11/18 12:07:59;;;;;;;0.30;0.30;;;10.70;99.90;;;;;;4995710;28;20427;-63
2023/11/18 12:10:31;;;;;;;0.30;0.30;;;10.60;99.90;;;;;;4995584;28;20533;-63
2023/11/18 12:13:27;;;;;;;0.30;0.30;;;10.60;99.90;;;;;;4995741;28;20201;-63
2023/11/18 12:16:05;;;;;;;0.30;0.30;;;10.50;99.90;;;;;;4994823;28;20475;-63
2023/11/18 12:18:36;;;;;;;0.77;0.77;;;10.40;99.90;;;;;;4995521;28;20401;-63
2023/11/18 12:21:03;;;;;;;0.30;0.30;;;10.40;99.90;;;;;;4995205;28;20367;-64
2023/11/18 12:23:30;;;;;;;0.30;0.30;;;10.40;99.90;;;;;;4977887;28;20192;-64
2023/11/18 12:25:57;;;;;;;0.38;0.38;;;10.40;99.90;;;;;;4994378;28;20386;-63
2023/11/18 12:28:38;;;;;;;0.30;0.30;;;10.40;99.90;;;;;;4995280;28;20173;-63
2023/11/18 12:31:16;;;;;;;0.30;0.30;;;10.30;99.90;;;;;;4995261;28;20175;-64
2023/11/18 12:33:54;;;;;;;0.50;0.50;;;10.30;99.90;;;;;;4994972;28;20212;-61
2023/11/18 12:36:56;;;;;;;0.40;0.40;;;10.30;99.90;;;;;;4994972;28;20351;-64
2023/11/18 12:39:31;;;;;;;0.30;0.30;;;10.30;99.90;;;;;;4994786;28;20485;-64
2023/11/18 12:42:06;;;;;;;0.30;0.20;;;10.30;99.90;;;;;;4994827;28;20172;-63
2023/11/18 12:44:39;;;;;;;0.30;0.30;;;10.30;99.90;;;;;;4994437;28;20532;-64
2023/11/18 12:47:14;;;;;;;0.30;0.30;;;10.30;99.90;;;;;;4994941;28;20817;-63
2023/11/18 12:49:43;;;;;;;0.30;0.30;;;10.30;99.90;;;;;;4994897;28;20596;-63
2023/11/18 12:52:11;;;;;;;0.30;0.30;;;10.20;99.90;;;;;;4994790;28;20164;-63
2023/11/18 12:54:37;;;;;;;0.30;0.20;;;10.20;99.90;;;;;;4994092;28;20176;-63
2023/11/18 12:57:06;;;;;;;0.30;0.30;;;10.20;99.90;;;;;;4994830;28;20188;-62
2023/11/18 12:59:33;;;;;;;0.40;0.40;;;10.30;99.90;;;;;;4994662;28;20172;-62
2023/11/18 13:02:03;;;;;;;0.30;0.30;;;10.20;99.90;;;;;;4994621;28;20524;-63
2023/11/18 13:04:33;;;;;;;0.30;0.30;;;10.20;99.90;;;;;;4994082;28;20176;-63
2023/11/18 13:07:00;;;;;;;0.30;0.30;;;10.20;99.90;;;;;;4994264;28;20204;-64
2023/11/18 13:09:28;;;;;;;0.30;0.30;;;10.10;99.90;;;;;;4976576;28;20174;-63
2023/11/18 13:11:59;;;;;;;0.40;0.40;;;10.10;99.90;;;;;;4993376;28;20250;-63
2023/11/18 13:14:29;;;;;;;0.30;0.30;;;10.10;99.90;;;;;;4993891;28;20200;-62
2023/11/18 13:16:56;;;;;;;0.30;0.20;;;10.00;99.90;;;;;;4994435;28;20210;-64
2023/11/18 13:19:27;;;;;;;0.77;0.77;;;10.00;99.90;;;;;;4994213;28;20168;-62
2023/11/18 13:21:59;;;;;;;0.82;0.82;;;10.00;99.90;;;;;;4994245;28;20167;-63
2023/11/18 13:24:26;;;;;;;0.30;0.30;;;10.00;99.90;;;;;;4993672;28;20177;-63
2023/11/18 13:26:55;;;;;;;0.52;0.50;;;10.00;99.90;;;;;;4994192;28;20567;-63
2023/11/18 13:29:21;;;;;;;0.30;0.30;;;9.90;99.90;;;;;;4994108;28;20175;-62
2023/11/18 13:31:48;;;;;;;0.30;0.30;;;9.90;99.90;;;;;;4993960;28;20183;-63
2023/11/18 13:34:15;;;;;;;0.30;0.30;;;9.80;99.90;;;;;;4993593;28;20206;-63
2023/11/18 13:36:43;;;;;;;0.40;0.40;;;9.80;99.90;;;;;;4994170;28;20525;-62
2023/11/18 13:39:16;;;;;;;0.30;0.30;;;9.80;99.90;;;;;;4993782;28;20230;-63
2023/11/18 13:41:42;;;;;;;0.30;0.30;;;9.80;99.90;;;;;;4993996;28;20499;-63
2023/11/18 13:44:09;;;;;;;0.30;0.30;;;9.70;99.90;;;;;;4993346;28;20187;-63
2023/11/18 13:46:39;;;;;;;0.40;0.40;;;9.70;99.90;;;;;;4993770;28;20188;-63
2023/11/18 13:49:06;;;;;;;0.30;0.30;;;9.70;99.90;;;;;;4993798;28;20180;-62
2023/11/18 13:51:33;;;;;;;0.40;0.40;;;9.70;99.90;;;;;;4993933;28;20532;-62
2023/11/18 13:53:59;;;;;;;0.30;0.30;;;9.60;99.90;;;;;;4975853;28;20210;-63
2023/11/18 13:56:27;;;;;;;0.45;0.45;;;9.60;99.90;;;;;;4993589;28;20188;-63
2023/11/18 13:58:54;;;;;;;0.38;0.38;;;9.50;99.90;;;;;;4993549;28;20172;-62
2023/11/18 14:01:21;;;;;;;0.30;0.30;;;9.50;99.90;;;;;;4993762;28;20613;-62
2023/11/18 14:03:47;;;;;;;0.30;0.30;;;9.40;99.90;;;;;;4993653;28;20240;-67
2023/11/18 14:06:17;;;;;;;0.30;0.30;;;9.50;99.90;;;;;;4993455;28;20195;-62
2023/11/18 14:08:43;;;;;;;0.30;0.30;;;9.40;99.90;;;;;;4993327;28;20263;-62
2023/11/18 14:11:09;;;;;;;0.30;0.30;;;9.50;99.90;;;;;;4993698;28;20184;-63
2023/11/18 14:13:35;;;;;;;0.47;0.47;;;9.40;99.90;;;;;;4993494;28;20199;-62
2023/11/18 14:16:09;;;;;;;0.85;0.85;;;9.40;99.90;;;;;;4993151;28;20291;-62
2023/11/18 14:18:36;;;;;;;0.55;0.55;;;9.50;99.90;;;;;;4993705;28;20191;-62
2023/11/18 14:21:02;;;;;;;0.30;0.30;;;9.50;99.90;;;;;;4993894;28;20168;-62
2023/11/18 14:23:27;;;;;;;0.30;0.30;;;9.50;99.90;;;;;;4993951;28;20527;-63
2023/11/18 14:25:53;;;;;;;0.30;0.30;;;9.50;99.90;;;;;;4997102;28;20463;-63
2023/11/18 14:28:23;;;;;;;0.30;0.30;;;9.50;99.90;;;;;;4997912;28;20692;-62
2023/11/18 14:30:48;;;;;;;0.40;0.40;;;9.50;99.90;;;;;;4997496;28;20169;-61
2023/11/18 14:33:14;;;;;;;0.30;0.30;;;9.40;99.90;;;;;;4997278;28;20199;-64
2023/11/18 14:35:40;;;;;;;0.30;0.30;;;9.40;99.90;;;;;;4996998;28;20255;-64
2023/11/18 14:38:08;;;;;;;0.30;0.30;;;9.40;99.90;;;;;;4997030;28;20180;-63
2023/11/18 14:40:36;;;;;;;0.40;0.40;;;9.40;99.90;;;;;;4997134;28;20247;-64
2023/11/18 14:43:02;;;;;;;0.30;0.30;;;9.50;99.90;;;;;;4997089;28;20670;-62
2023/11/18 14:45:27;;;;;;;0.40;0.40;;;9.40;99.90;;;;;;4996797;28;20183;-63
2023/11/18 14:47:55;;;;;;;0.30;0.20;;;9.40;99.90;;;;;;4979933;28;20416;-63
2023/11/18 14:50:23;;;;;;;0.30;0.30;;;9.40;99.90;;;;;;4997141;28;20180;-64
2023/11/18 14:52:59;;;;;;;0.30;0.30;;;9.40;99.90;;;;;;4996654;28;20195;-64
2023/11/18 14:55:32;;;;;;;0.32;0.32;;;9.30;99.90;;;;;;4996597;28;20188;-64
2023/11/18 14:57:58;;;;;;;0.30;0.30;;;9.30;99.90;;;;;;4997218;28;20171;-64
2023/11/18 15:00:27;;;;;;;0.30;0.30;;;9.20;99.90;;;;;;4997166;28;20628;-63
2023/11/18 15:02:57;;;;;;;0.30;0.30;;;9.20;99.90;;;;;;4997045;28;20480;-64
2023/11/18 15:05:23;;;;;;;0.40;0.40;;;9.10;99.90;;;;;;4995626;28;20226;-64
2023/11/18 15:07:50;;;;;;;0.30;0.30;;;9.20;99.90;;;;;;4959394;28;20585;-64
2023/11/18 15:10:19;;;;;;;0.30;0.30;;;9.10;99.90;;;;;;4976964;28;20231;-64
2023/11/18 15:12:54;;;;;;;0.30;0.20;;;9.20;99.90;;;;;;4977023;28;20214;-63
2023/11/18 15:15:21;;;;;;;0.30;0.30;;;9.10;99.90;;;;;;4976906;28;20258;-63
2023/11/18 15:17:50;;;;;;;0.35;0.35;;;9.10;99.90;;;;;;4977658;28;20512;-63
2023/11/18 15:20:18;;;;;;;0.30;0.30;;;9.00;99.90;;;;;;4978509;28;20177;-63
2023/11/18 15:22:46;;;;;;;0.40;0.40;;;9.00;99.90;;;;;;4996650;28;20187;-64
2023/11/18 15:25:12;;;;;;;0.40;0.40;;;9.00;99.90;;;;;;4995894;28;20188;-64
2023/11/18 15:27:45;;;;;;;0.40;0.40;;;9.00;99.90;;;;;;4978771;28;20198;-64
2023/11/18 15:30:16;;;;;;;0.35;0.35;;;9.00;99.90;;;;;;4996594;28;20583;-64
2023/11/18 15:32:43;;;;;;;0.60;0.60;;;9.00;99.90;;;;;;4978957;28;20192;-63
2023/11/18 15:35:09;;;;;;;0.47;0.47;;;8.90;99.90;;;;;;4994642;28;20524;-63
2023/11/18 15:37:41;;;;;;;0.30;0.20;;;8.90;99.90;;;;;;4996301;28;20163;-64
2023/11/18 15:40:13;;;;;;;0.40;0.40;;;8.90;99.90;;;;;;4996382;28;20183;-63
2023/11/18 15:42:48;;;;;;;0.30;0.30;;;8.90;99.90;;;;;;4996138;28;20662;-64
2023/11/18 15:45:18;;;;;;;0.45;0.45;;;8.90;99.90;;;;;;4995325;28;20186;-63
2023/11/18 15:47:44;;;;;;;0.30;0.30;;;8.90;99.90;;;;;;4996076;28;20168;-63
2023/11/18 15:50:18;;;;;;;0.40;0.40;;;8.90;99.90;;;;;;4995960;28;20183;-64
2023/11/18 15:52:53;;;;;;;0.30;0.30;;;8.90;99.90;;;;;;4978619;28;20290;-64
2023/11/18 15:55:18;;;;;;;0.30;0.30;;;8.90;99.90;;;;;;4977875;28;20209;-62
2023/11/18 15:57:52;;;;;;;0.37;0.37;;;8.80;99.90;;;;;;4978436;28;20179;-63
2023/11/18 16:00:24;;;;;;;0.30;0.30;;;8.80;99.90;;;;;;4978279;28;20242;-64
2023/11/18 16:02:52;;;;;;;0.30;0.30;;;8.90;99.90;;;;;;4995640;28;20171;-63
2023/11/18 16:05:22;;;;;;;0.32;0.32;;;8.90;99.90;;;;;;4995402;28;20622;-63
2023/11/18 16:07:55;;;;;;;0.30;0.30;;;8.90;99.90;;;;;;4978031;28;20198;-66
2023/11/18 16:10:22;;;;;;;0.30;0.30;;;8.90;99.90;;;;;;4995546;28;20595;-64
2023/11/18 16:12:51;;;;;;;0.40;0.40;;;8.90;99.90;;;;;;4995530;28;20194;-64
2023/11/18 16:15:19;;;;;;;0.30;0.30;;;8.90;99.90;;;;;;4994826;28;20191;-62
2023/11/18 16:17:49;;;;;;;0.30;0.30;;;8.90;99.90;;;;;;4995729;28;20159;-64
2023/11/18 16:20:16;;;;;;;0.30;0.30;;;8.90;99.90;;;;;;4978307;28;20176;-64
2023/11/18 16:22:47;;;;;;;0.40;0.40;;;9.00;99.90;;;;;;4995454;28;20174;-64
2023/11/18 16:25:19;;;;;;;0.30;0.30;;;9.00;99.90;;;;;;4995169;28;20192;-64
2023/11/18 16:27:45;;;;;;;0.40;0.40;;;9.00;99.90;;;;;;4995598;28;20238;-64
2023/11/18 16:30:11;;;;;;;0.30;0.30;;;9.00;99.90;;;;;;4994508;28;20175;-64
2023/11/18 16:32:37;;;;;;;0.30;0.30;;;9.00;99.90;;;;;;4994926;28;20463;-64
2023/11/18 16:35:03;;;;;;;0.33;0.33;;;8.90;99.90;;;;;;4994957;28;20532;-64
2023/11/18 16:37:29;;;;;;;0.30;0.30;;;8.90;99.90;;;;;;4994980;28;20266;-64
2023/11/18 16:39:54;;;;;;;0.40;0.40;;;8.90;99.90;;;;;;4995161;28;20258;-64
2023/11/18 16:42:23;;;;;;;0.30;0.20;;;8.90;99.90;;;;;;4977450;28;20233;-64
2023/11/18 16:44:49;;;;;;;0.50;0.50;;;8.90;99.90;;;;;;4994449;28;20164;-63
2023/11/18 16:47:15;;;;;;;0.40;0.40;;;8.90;99.90;;;;;;4994713;28;20505;-64
2023/11/18 16:49:43;;;;;;;0.60;0.60;;;8.90;99.90;;;;;;4995037;28;20171;-63
2023/11/18 16:52:09;;;;;;;0.30;0.30;;;8.90;99.90;;;;;;4994917;28;20636;-64
2023/11/18 16:54:34;;;;;;;0.30;0.30;;;8.80;99.90;;;;;;4994455;28;20288;-63
2023/11/18 16:57:00;;;;;;;0.30;0.30;;;8.80;99.90;;;;;;4994599;28;20225;-63
2023/11/18 16:59:26;;;;;;;0.30;0.30;;;8.80;99.90;;;;;;4995073;28;20178;-63
2023/11/18 17:01:51;;;;;;;0.30;0.30;;;8.80;99.90;;;;;;4994792;28;20170;-64
2023/11/18 17:04:17;;;;;;;0.30;0.30;;;8.80;99.90;;;;;;4976699;28;20175;-64
2023/11/18 17:06:44;;;;;;;0.40;0.40;;;8.80;99.90;;;;;;4994663;28;20202;-65
2023/11/18 17:09:11;;;;;;;0.30;0.30;;;8.80;99.90;;;;;;4994667;28;20168;-64